Flushing, NY

11:08 AM EDT on August 25, 2016 (GMT -0400)
Cedar Grove Cemetery, Flushing | | Change Station

Elev 49 ft 40.74 °N, 73.83 °W | Updated 6 minutes ago

Mostly Cloudy
Mostly Cloudy
82.9 °F
Feels Like 85 °F
N
4.2
Wind Variable Wind from ESE

Today
High -- | Low -- °F
--% Chance of Precip.
Yesterday
High -- | Low -- °F
Precip. -- in
Pressure 30.09 in
Visibility 10.0 miles
Clouds Few 20000 ft
Mostly Cloudy 25000 ft
Heat Index 85 °F
Dew Point 66 °F
Humidity 56%
Rainfall 0.00 in
Snow Depth Not available.
6:15 AM 7:37 PM
Last Quarter, 45% visible
METAR KLGA 251451Z 21011G18KT 10SM FEW200 BKN250 28/16 A3009 RMK AO2 SLP189 T02780161 56010
Pressure 30.09 in
Visibility 10.0 miles
Clouds Few 20000 ft
Mostly Cloudy 25000 ft
Heat Index 85 °F
Dew Point 66 °F
Humidity 56%
Rainfall 0.00 in
Snow Depth Not available.
6:15 AM 7:37 PM
Last Quarter, 45% visible
METAR KLGA 251451Z 21011G18KT 10SM FEW200 BKN250 28/16 A3009 RMK AO2 SLP189 T02780161 56010

10-Day Weather Forecast

Almanac

Astronomy

Aug. 25, 2016 Rise Set
Actual Time
Civil Twilight
Nautical Twilight
Astronomical Twilight
Moon
Length of Visible Light
Length of Day
Tomorrow will be .
, % of the Moon is Illuminated

Today's Extremes

State Highs State Lows

Community

WunderPhotos

Upload Photos

1,934,854 photos uploaded!

WunderBlog® & News

Nearby

Air Quality

  Air Quality AQ Index Pollutant
Not available.

Snow Depth

Station Depth Elevation

Earthquake Activity

City Distance Mag. Time & Date
Minimum magnitude displayed is 2.5.

Coastal Water Temperatures

Place Temperature

Stations

Nearby Weather Stations

Station Location Temp. Windchill Dew Point Humidity Wind Precip. Elev Updated Type
                   

Watches & Warnings

There are currently no watches in effect.